Time;durP1;ratioP1;P1;durP2;ratioP2;P2;SDS_P1;SDS_P2;PMS_P1;PMS_P2;Temp;Humidity;BMP_temperature;BMP_pressure;BME280_temperature;BME280_humidity;BME280_pressure;Samples;Min_cycle;Max_cycle;Signal;HPM_P1;HPM_P2
2023/04/25 00:01:25;;;;;;;3.80;2.73;;;;;;;;;;5115065;28;20453;-71
2023/04/25 00:03:52;;;;;;;3.80;2.93;;;;;;;;;;5115130;28;20446;-71
2023/04/25 00:06:19;;;;;;;7.40;3.43;;;;;;;;;;5115176;28;20524;-71
2023/04/25 00:08:47;;;;;;;5.23;3.40;;;;;;;;;;5115443;28;20950;-70
2023/04/25 00:11:14;;;;;;;3.20;2.80;;;;;;;;;;5115192;28;20448;-70
2023/04/25 00:13:42;;;;;;;5.03;3.60;;;;;;;;;;5114874;28;21009;-71
2023/04/25 00:16:10;;;;;;;3.13;2.80;;;;;;;;;;5114907;28;20851;-71
2023/04/25 00:18:37;;;;;;;4.13;3.20;;;;;;;;;;5114928;28;20441;-71
2023/04/25 00:21:06;;;;;;;4.63;3.00;;;;;;;;;;5114472;28;20454;-72
2023/04/25 00:23:35;;;;;;;3.40;3.10;;;;;;;;;;5114267;28;21094;-71
2023/04/25 00:26:03;;;;;;;3.53;3.10;;;;;;;;;;5114975;28;20495;-71
2023/04/25 00:28:31;;;;;;;3.20;2.87;;;;;;;;;;5114757;28;20453;-71
2023/04/25 00:30:58;;;;;;;7.27;3.70;;;;;;;;;;5114896;28;20789;-71
2023/04/25 00:33:25;;;;;;;3.57;2.80;;;;;;;;;;5113756;28;20465;-71
2023/04/25 00:35:52;;;;;;;4.17;3.13;;;;;;;;;;5114662;28;20481;-71
2023/04/25 00:38:19;;;;;;;3.73;2.87;;;;;;;;;;5114603;28;20816;-71
2023/04/25 00:40:46;;;;;;;3.87;3.20;;;;;;;;;;5114598;28;20445;-71
2023/04/25 00:43:15;;;;;;;5.00;2.90;;;;;;;;;;5114279;28;21004;-71
2023/04/25 00:45:44;;;;;;;6.60;3.10;;;;;;;;;;5114324;28;20499;-71
2023/04/25 00:48:11;;;;;;;4.30;3.40;;;;;;;;;;5114454;28;20931;-71
2023/04/25 00:50:39;;;;;;;6.07;3.43;;;;;;;;;;5114444;28;20460;-71
2023/04/25 00:53:06;;;;;;;5.13;3.07;;;;;;;;;;5114504;28;20908;-71
2023/04/25 00:55:34;;;;;;;4.57;3.30;;;;;;;;;;5113850;28;20484;-71
2023/04/25 00:58:01;;;;;;;3.37;2.93;;;;;;;;;;5114473;28;20911;-71
2023/04/25 01:00:30;;;;;;;6.37;3.23;;;;;;;;;;5114363;28;20458;-71
2023/04/25 01:02:57;;;;;;;3.90;3.27;;;;;;;;;;5114181;28;20519;-70
2023/04/25 01:05:24;;;;;;;3.30;2.63;;;;;;;;;;5113905;28;20931;-71
2023/04/25 01:07:52;;;;;;;6.70;5.33;;;;;;;;;;5114055;28;20442;-71
2023/04/25 01:10:19;;;;;;;4.30;3.90;;;;;;;;;;5114035;28;20450;-70
2023/04/25 01:12:46;;;;;;;4.90;2.90;;;;;;;;;;5114063;28;20474;-71
2023/04/25 01:15:13;;;;;;;3.07;2.77;;;;;;;;;;5113763;28;20457;-71
2023/04/25 01:17:43;;;;;;;4.10;3.47;;;;;;;;;;5114041;28;20442;-71
2023/04/25 01:20:12;;;;;;;3.70;3.27;;;;;;;;;;5114019;28;20453;-71
2023/04/25 01:22:41;;;;;;;3.97;3.30;;;;;;;;;;5113389;28;20542;-71
2023/04/25 01:25:09;;;;;;;7.63;4.53;;;;;;;;;;5113532;28;20450;-71
2023/04/25 01:27:36;;;;;;;6.70;4.13;;;;;;;;;;5113768;28;20450;-71
2023/04/25 01:30:04;;;;;;;4.73;3.57;;;;;;;;;;5113900;28;20782;-71
2023/04/25 01:32:37;;;;;;;3.83;3.33;;;;;;;;;;5113568;28;20472;-71
2023/04/25 01:35:08;;;;;;;3.40;2.97;;;;;;;;;;5113518;28;20506;-71
2023/04/25 01:37:36;;;;;;;3.73;3.30;;;;;;;;;;5113799;28;20496;-71
2023/04/25 01:40:05;;;;;;;3.23;2.63;;;;;;;;;;5113711;28;20445;-71
2023/04/25 01:42:32;;;;;;;5.00;4.27;;;;;;;;;;5113623;28;20970;-71
2023/04/25 01:45:00;;;;;;;4.13;2.87;;;;;;;;;;5113165;28;20453;-71
2023/04/25 01:47:27;;;;;;;4.37;2.97;;;;;;;;;;5113626;28;20449;-71
2023/04/25 01:49:54;;;;;;;3.43;3.00;;;;;;;;;;5113683;28;20453;-71
2023/04/25 01:52:21;;;;;;;4.50;2.40;;;;;;;;;;5113478;28;20485;-71
2023/04/25 01:54:48;;;;;;;3.83;3.30;;;;;;;;;;5113510;28;20442;-71
2023/04/25 01:57:17;;;;;;;4.47;3.13;;;;;;;;;;5113191;28;20478;-71
2023/04/25 01:59:45;;;;;;;4.90;2.83;;;;;;;;;;5113334;28;20445;-71
2023/04/25 02:02:12;;;;;;;3.27;2.97;;;;;;;;;;5113167;28;20466;-71
2023/04/25 02:04:39;;;;;;;4.93;3.40;;;;;;;;;;5113206;28;20815;-71
2023/04/25 02:07:06;;;;;;;3.07;2.77;;;;;;;;;;5113345;28;20441;-71
2023/04/25 02:09:33;;;;;;;4.13;3.20;;;;;;;;;;5113373;28;20461;-71
2023/04/25 02:12:01;;;;;;;5.40;3.20;;;;;;;;;;5113348;28;20465;-71
2023/04/25 02:14:30;;;;;;;8.77;5.43;;;;;;;;;;5112970;28;20484;-71
2023/04/25 02:16:58;;;;;;;4.83;3.50;;;;;;;;;;5113181;28;21009;-71
2023/04/25 02:19:25;;;;;;;3.37;2.80;;;;;;;;;;5113353;28;20442;-71
2023/04/25 02:21:52;;;;;;;4.30;3.30;;;;;;;;;;5112546;28;20478;-71
2023/04/25 02:24:19;;;;;;;4.13;3.50;;;;;;;;;;5112781;28;20441;-71
2023/04/25 02:26:46;;;;;;;4.40;3.00;;;;;;;;;;5113409;28;20457;-71
2023/04/25 02:29:14;;;;;;;5.53;2.80;;;;;;;;;;5113184;28;20454;-71
2023/04/25 02:31:43;;;;;;;4.20;2.97;;;;;;;;;;5112992;28;20473;-71
2023/04/25 02:34:10;;;;;;;5.23;3.50;;;;;;;;;;5112866;28;20454;-71
2023/04/25 02:36:37;;;;;;;3.30;3.00;;;;;;;;;;5112938;28;20524;-71
2023/04/25 02:39:04;;;;;;;7.10;3.47;;;;;;;;;;5113236;28;20442;-71
2023/04/25 02:41:31;;;;;;;4.80;3.17;;;;;;;;;;5112974;28;20935;-71
2023/04/25 02:43:59;;;;;;;16.60;10.23;;;;;;;;;;5113082;28;20449;-71
2023/04/25 02:46:26;;;;;;;6.40;4.57;;;;;;;;;;5113142;28;20449;-71
2023/04/25 02:48:54;;;;;;;6.83;3.30;;;;;;;;;;5112996;28;20449;-71
2023/04/25 02:51:21;;;;;;;3.77;3.40;;;;;;;;;;5112977;28;20541;-71
2023/04/25 02:53:48;;;;;;;5.67;3.50;;;;;;;;;;5112868;28;20817;-71
2023/04/25 02:56:15;;;;;;;5.33;3.57;;;;;;;;;;5112780;28;20492;-71
2023/04/25 02:58:43;;;;;;;5.07;3.90;;;;;;;;;;5116019;28;20469;-71
2023/04/25 03:01:10;;;;;;;20.93;12.27;;;;;;;;;;5116499;28;20446;-71
2023/04/25 03:03:37;;;;;;;11.60;6.37;;;;;;;;;;5116216;28;20470;-71
2023/04/25 03:06:05;;;;;;;4.57;4.10;;;;;;;;;;5116459;28;20449;-71
2023/04/25 03:08:34;;;;;;;5.40;3.60;;;;;;;;;;5116212;28;20958;-71
2023/04/25 03:11:01;;;;;;;4.77;3.90;;;;;;;;;;5116393;28;20447;-71
2023/04/25 03:13:29;;;;;;;6.53;4.20;;;;;;;;;;5115963;28;20480;-71
2023/04/25 03:15:56;;;;;;;6.67;4.30;;;;;;;;;;5116272;28;20458;-71
2023/04/25 03:18:24;;;;;;;6.27;4.50;;;;;;;;;;5116334;28;20923;-71
2023/04/25 03:20:51;;;;;;;6.40;4.50;;;;;;;;;;5116344;28;20520;-71
2023/04/25 03:23:19;;;;;;;5.40;4.73;;;;;;;;;;5115336;28;20465;-71
2023/04/25 03:25:46;;;;;;;20.73;14.23;;;;;;;;;;5115887;28;20463;-71
2023/04/25 03:28:13;;;;;;;10.63;6.33;;;;;;;;;;5116019;28;20953;-71
2023/04/25 03:30:41;;;;;;;5.50;4.50;;;;;;;;;;5116132;28;20457;-71
2023/04/25 03:33:08;;;;;;;5.23;3.43;;;;;;;;;;5115835;28;20480;-71
2023/04/25 03:35:35;;;;;;;5.00;4.27;;;;;;;;;;5116028;28;20806;-71
2023/04/25 03:38:02;;;;;;;5.77;4.20;;;;;;;;;;5115668;28;20481;-71
2023/04/25 03:40:30;;;;;;;5.70;4.77;;;;;;;;;;5115686;28;20938;-71
2023/04/25 03:42:57;;;;;;;6.90;5.20;;;;;;;;;;5115751;28;21021;-71
2023/04/25 03:45:25;;;;;;;7.37;4.20;;;;;;;;;;5115615;28;20456;-71
2023/04/25 03:47:52;;;;;;;6.40;5.20;;;;;;;;;;5115608;28;20450;-71
2023/04/25 03:50:19;;;;;;;10.50;5.10;;;;;;;;;;5115402;28;20469;-71
2023/04/25 03:52:46;;;;;;;9.23;5.07;;;;;;;;;;5115568;28;20466;-71
2023/04/25 03:55:13;;;;;;;19.00;10.63;;;;;;;;;;5115458;28;20456;-71
2023/04/25 03:57:42;;;;;;;8.93;7.40;;;;;;;;;;5115283;28;20485;-71
2023/04/25 04:00:10;;;;;;;9.40;5.70;;;;;;;;;;5115421;28;20446;-71
2023/04/25 04:02:38;;;;;;;6.33;4.83;;;;;;;;;;5115214;28;20470;-71
2023/04/25 04:05:06;;;;;;;5.70;5.10;;;;;;;;;;5115079;28;20457;-71
2023/04/25 04:07:36;;;;;;;5.70;5.13;;;;;;;;;;5115228;28;20461;-71
2023/04/25 04:10:05;;;;;;;5.50;4.60;;;;;;;;;;5115204;28;20450;-70
2023/04/25 04:12:32;;;;;;;5.80;5.17;;;;;;;;;;5115005;28;20466;-70
2023/04/25 04:15:00;;;;;;;6.33;4.73;;;;;;;;;;5114774;28;20449;-71
2023/04/25 04:17:28;;;;;;;8.33;4.77;;;;;;;;;;5114642;28;20492;-71
2023/04/25 04:19:55;;;;;;;20.20;11.00;;;;;;;;;;5115084;28;20446;-70
2023/04/25 04:22:22;;;;;;;13.77;7.97;;;;;;;;;;5114383;28;20473;-71
2023/04/25 04:24:49;;;;;;;9.50;5.03;;;;;;;;;;5114680;28;20445;-71
2023/04/25 04:27:17;;;;;;;5.70;4.53;;;;;;;;;;5114937;28;20511;-71
2023/04/25 04:29:45;;;;;;;8.77;4.00;;;;;;;;;;5115123;28;20864;-71
2023/04/25 04:32:14;;;;;;;5.60;4.80;;;;;;;;;;5114693;28;20482;-71
2023/04/25 04:34:41;;;;;;;5.30;4.77;;;;;;;;;;5114642;28;20446;-71
2023/04/25 04:37:09;;;;;;;5.00;4.30;;;;;;;;;;5114883;28;20481;-71
2023/04/25 04:39:36;;;;;;;7.00;3.77;;;;;;;;;;5114754;28;20450;-71
2023/04/25 04:42:04;;;;;;;4.03;3.33;;;;;;;;;;5114533;28;20492;-71
2023/04/25 04:44:34;;;;;;;10.40;4.23;;;;;;;;;;5114187;28;20475;-71
2023/04/25 04:47:01;;;;;;;6.03;3.23;;;;;;;;;;5114406;28;20445;-71
2023/04/25 04:49:30;;;;;;;5.07;3.97;;;;;;;;;;5114491;28;20463;-71
2023/04/25 04:51:57;;;;;;;17.60;9.40;;;;;;;;;;5114532;28;20974;-71
2023/04/25 04:54:24;;;;;;;7.50;5.40;;;;;;;;;;5114170;28;20797;-71
2023/04/25 04:56:53;;;;;;;6.40;4.70;;;;;;;;;;5114463;28;20926;-71
2023/04/25 04:59:20;;;;;;;4.30;3.90;;;;;;;;;;5114119;28;20906;-71
2023/04/25 05:01:47;;;;;;;6.00;4.90;;;;;;;;;;5114229;28;20474;-71
2023/04/25 05:04:14;;;;;;;9.90;4.50;;;;;;;;;;5113889;28;20449;-71
2023/04/25 05:06:44;;;;;;;7.87;6.43;;;;;;;;;;5113991;28;20453;-71
2023/04/25 05:09:11;;;;;;;7.20;5.43;;;;;;;;;;5114017;28;20457;-71
2023/04/25 05:11:38;;;;;;;8.17;6.80;;;;;;;;;;5113719;28;20506;-71
2023/04/25 05:14:05;;;;;;;30.80;9.80;;;;;;;;;;5113729;28;20449;-71
2023/04/25 05:16:32;;;;;;;7.67;5.20;;;;;;;;;;5113722;28;20453;-71
2023/04/25 05:18:59;;;;;;;5.00;4.40;;;;;;;;;;5114007;28;20454;-71
2023/04/25 05:21:27;;;;;;;9.03;4.37;;;;;;;;;;5112778;28;20458;-71
2023/04/25 05:23:55;;;;;;;7.07;4.70;;;;;;;;;;5113500;28;20898;-71
2023/04/25 05:26:23;;;;;;;6.20;3.60;;;;;;;;;;5113798;28;20879;-71
2023/04/25 05:28:51;;;;;;;9.73;3.80;;;;;;;;;;5113738;28;20486;-71
2023/04/25 05:31:18;;;;;;;3.63;3.30;;;;;;;;;;5113699;28;20454;-71
2023/04/25 05:33:45;;;;;;;3.90;3.30;;;;;;;;;;5113549;28;20473;-71
2023/04/25 05:36:13;;;;;;;4.37;3.00;;;;;;;;;;5113636;28;20450;-71
2023/04/25 05:38:40;;;;;;;6.50;4.10;;;;;;;;;;5113568;28;20840;-71
2023/04/25 05:41:08;;;;;;;7.80;4.50;;;;;;;;;;5113733;28;20452;-71
2023/04/25 05:43:35;;;;;;;3.13;2.83;;;;;;;;;;5113455;28;20564;-71
2023/04/25 05:46:03;;;;;;;2.83;2.40;;;;;;;;;;5113797;28;20865;-71
2023/04/25 05:48:30;;;;;;;2.50;2.03;;;;;;;;;;5113626;28;20446;-71
2023/04/25 05:50:57;;;;;;;2.97;2.67;;;;;;;;;;5113514;28;20450;-71
2023/04/25 05:53:24;;;;;;;2.97;2.00;;;;;;;;;;5113214;28;20473;-71
2023/04/25 05:55:51;;;;;;;3.40;2.40;;;;;;;;;;5113457;28;20939;-71
2023/04/25 05:58:20;;;;;;;2.80;2.17;;;;;;;;;;5113380;28;20897;-71
2023/04/25 06:00:47;;;;;;;2.67;2.43;;;;;;;;;;5113575;28;20446;-72
2023/04/25 06:03:14;;;;;;;2.67;2.10;;;;;;;;;;5113477;28;20986;-72
2023/04/25 06:05:42;;;;;;;3.43;1.83;;;;;;;;;;5113290;28;20867;-72
2023/04/25 06:08:09;;;;;;;2.43;1.57;;;;;;;;;;5113418;28;20446;-72
2023/04/25 06:10:37;;;;;;;2.67;1.47;;;;;;;;;;5113508;28;20453;-72
2023/04/25 06:13:04;;;;;;;2.80;1.73;;;;;;;;;;5113185;28;20478;-72
2023/04/25 06:15:33;;;;;;;3.97;1.60;;;;;;;;;;5113044;28;20445;-72
2023/04/25 06:18:00;;;;;;;2.67;1.37;;;;;;;;;;5113183;28;20481;-72
2023/04/25 06:20:27;;;;;;;2.83;1.90;;;;;;;;;;5113182;28;20477;-72
2023/04/25 06:22:54;;;;;;;8.50;4.97;;;;;;;;;;5112735;28;20469;-72
2023/04/25 06:25:21;;;;;;;2.00;1.50;;;;;;;;;;5112945;28;20811;-72
2023/04/25 06:27:48;;;;;;;3.10;1.47;;;;;;;;;;5113330;28;20927;-72
2023/04/25 06:30:18;;;;;;;6.50;1.80;;;;;;;;;;5113174;28;20453;-72
2023/04/25 06:32:46;;;;;;;3.30;2.00;;;;;;;;;;5115079;28;21051;-72
2023/04/25 06:35:13;;;;;;;1.80;1.50;;;;;;;;;;5116808;28;20449;-72
2023/04/25 06:37:40;;;;;;;2.53;1.63;;;;;;;;;;5117119;28;21041;-73
2023/04/25 06:40:08;;;;;;;2.60;1.90;;;;;;;;;;5117072;28;20453;-72
2023/04/25 06:42:35;;;;;;;4.43;2.27;;;;;;;;;;5117175;28;20475;-72
2023/04/25 06:45:02;;;;;;;2.80;1.40;;;;;;;;;;5116849;28;20464;-72
2023/04/25 06:47:30;;;;;;;2.30;1.70;;;;;;;;;;5116802;28;20445;-72
2023/04/25 06:49:58;;;;;;;8.40;1.93;;;;;;;;;;5117063;28;20449;-72
2023/04/25 06:52:25;;;;;;;3.13;1.80;;;;;;;;;;5116719;28;20846;-72
2023/04/25 06:54:52;;;;;;;2.23;1.80;;;;;;;;;;5116884;28;20446;-72
2023/04/25 06:57:19;;;;;;;3.90;1.60;;;;;;;;;;5116426;28;20949;-72
2023/04/25 06:59:46;;;;;;;4.60;2.40;;;;;;;;;;5116543;28;20460;-73
2023/04/25 07:02:14;;;;;;;3.00;2.30;;;;;;;;;;5116596;28;21030;-72
2023/04/25 07:04:41;;;;;;;3.17;1.87;;;;;;;;;;5116495;28;20445;-72
2023/04/25 07:07:09;;;;;;;2.37;1.80;;;;;;;;;;5116485;28;20954;-72
2023/04/25 07:09:36;;;;;;;2.57;1.93;;;;;;;;;;5116297;28;20457;-72
2023/04/25 07:12:03;;;;;;;6.53;2.40;;;;;;;;;;5116456;28;20473;-72
2023/04/25 07:14:31;;;;;;;5.70;2.23;;;;;;;;;;5116001;28;20969;-72
2023/04/25 07:16:58;;;;;;;3.70;1.90;;;;;;;;;;5116421;28;20442;-72
2023/04/25 07:19:26;;;;;;;2.50;2.30;;;;;;;;;;5116282;28;20481;-73
2023/04/25 07:21:53;;;;;;;3.17;2.10;;;;;;;;;;5115863;28;20912;-72
2023/04/25 07:24:22;;;;;;;4.73;2.27;;;;;;;;;;5115624;28;20450;-72
2023/04/25 07:26:49;;;;;;;3.30;2.30;;;;;;;;;;5116247;28;20465;-72
2023/04/25 07:29:16;;;;;;;2.87;1.97;;;;;;;;;;5116086;28;20456;-71
2023/04/25 07:31:43;;;;;;;5.10;2.73;;;;;;;;;;5116119;28;20997;-72
2023/04/25 07:34:10;;;;;;;4.70;2.40;;;;;;;;;;5115902;28;20454;-72
2023/04/25 07:36:37;;;;;;;3.20;2.13;;;;;;;;;;5115958;28;20454;-72
2023/04/25 07:39:04;;;;;;;2.83;2.27;;;;;;;;;;5115843;28;20856;-72
2023/04/25 07:41:33;;;;;;;3.40;2.40;;;;;;;;;;5115658;28;20454;-72
2023/04/25 07:44:00;;;;;;;4.67;2.30;;;;;;;;;;5115556;28;20844;-72
2023/04/25 07:46:27;;;;;;;4.17;2.50;;;;;;;;;;5115960;28;20449;-72
2023/04/25 07:48:54;;;;;;;4.30;3.30;;;;;;;;;;5115883;28;20450;-72
2023/04/25 07:51:22;;;;;;;3.13;2.60;;;;;;;;;;5115851;28;20445;-72
2023/04/25 07:53:49;;;;;;;5.07;2.60;;;;;;;;;;5115524;28;20954;-72
2023/04/25 07:56:16;;;;;;;3.50;2.60;;;;;;;;;;5115698;28;20445;-72
2023/04/25 07:58:44;;;;;;;2.83;2.27;;;;;;;;;;5115474;28;20489;-72
2023/04/25 08:01:11;;;;;;;3.93;2.37;;;;;;;;;;5115701;28;20450;-72
2023/04/25 08:03:39;;;;;;;5.30;3.70;;;;;;;;;;5115290;28;20462;-72
2023/04/25 08:06:06;;;;;;;2.17;1.77;;;;;;;;;;5115534;28;20446;-72
2023/04/25 08:08:33;;;;;;;4.57;2.80;;;;;;;;;;5115310;28;20446;-72
2023/04/25 08:11:00;;;;;;;3.83;2.60;;;;;;;;;;5115238;28;20458;-72
2023/04/25 08:13:27;;;;;;;4.90;2.73;;;;;;;;;;5115002;28;20974;-72
2023/04/25 08:15:56;;;;;;;3.10;2.53;;;;;;;;;;5115433;28;20445;-72
2023/04/25 08:18:23;;;;;;;2.67;2.20;;;;;;;;;;5115047;28;20481;-72
2023/04/25 08:20:50;;;;;;;8.20;2.13;;;;;;;;;;5115429;28;20806;-72
2023/04/25 08:23:17;;;;;;;3.30;2.17;;;;;;;;;;5114300;28;20465;-72
2023/04/25 08:25:44;;;;;;;4.70;1.80;;;;;;;;;;5115064;28;20450;-72
2023/04/25 08:28:11;;;;;;;5.20;2.33;;;;;;;;;;5115217;28;20438;-72
2023/04/25 08:30:38;;;;;;;4.43;2.47;;;;;;;;;;5114872;28;20972;-72
2023/04/25 08:33:07;;;;;;;4.57;2.50;;;;;;;;;;5114885;28;20466;-72
2023/04/25 08:35:34;;;;;;;6.10;3.63;;;;;;;;;;5114533;28;20942;-72
2023/04/25 08:38:02;;;;;;;4.70;2.53;;;;;;;;;;5114819;28;20481;-72
2023/04/25 08:40:29;;;;;;;5.63;2.20;;;;;;;;;;5114590;28;20474;-72
2023/04/25 08:42:58;;;;;;;7.93;2.47;;;;;;;;;;5114681;28;20509;-72
2023/04/25 08:45:27;;;;;;;4.27;2.50;;;;;;;;;;5114683;28;20939;-71
2023/04/25 08:47:56;;;;;;;3.50;2.80;;;;;;;;;;5114557;28;20456;-71
2023/04/25 08:50:26;;;;;;;6.67;2.53;;;;;;;;;;5114566;28;20556;-71
2023/04/25 08:52:55;;;;;;;4.20;2.93;;;;;;;;;;5114429;28;21012;-71
2023/04/25 08:55:22;;;;;;;4.00;3.03;;;;;;;;;;5113197;28;20454;-71
2023/04/25 08:57:50;;;;;;;5.50;2.80;;;;;;;;;;5114340;28;20457;-71
2023/04/25 09:00:17;;;;;;;5.63;3.50;;;;;;;;;;5114146;28;20859;-71
2023/04/25 09:02:44;;;;;;;4.80;2.60;;;;;;;;;;5114144;28;20884;-71
2023/04/25 09:05:13;;;;;;;6.73;2.43;;;;;;;;;;5114024;28;20445;-71
2023/04/25 09:07:42;;;;;;;4.00;2.97;;;;;;;;;;5114323;28;20449;-71
2023/04/25 09:10:10;;;;;;;3.17;2.27;;;;;;;;;;5114156;28;20452;-72
2023/04/25 09:12:37;;;;;;;4.33;2.87;;;;;;;;;;5114248;28;20848;-71
2023/04/25 09:15:08;;;;;;;2.83;2.53;;;;;;;;;;5113913;28;20449;-71
2023/04/25 09:17:39;;;;;;;6.03;2.20;;;;;;;;;;5114148;28;20806;-72
2023/04/25 09:20:08;;;;;;;3.60;2.93;;;;;;;;;;5114630;28;20515;-72
2023/04/25 09:22:36;;;;;;;2.67;2.20;;;;;;;;;;5113310;28;20461;-72
2023/04/25 09:25:09;;;;;;;3.20;2.20;;;;;;;;;;5114179;28;20899;-72
2023/04/25 09:27:36;;;;;;;2.10;1.70;;;;;;;;;;5114103;28;20457;-72
2023/04/25 09:30:04;;;;;;;4.10;2.17;;;;;;;;;;5114010;28;20511;-72
2023/04/25 09:32:31;;;;;;;3.43;2.00;;;;;;;;;;5113926;28;20484;-74
2023/04/25 09:34:59;;;;;;;2.00;1.80;;;;;;;;;;5113758;28;20540;-72
2023/04/25 09:37:27;;;;;;;1.90;1.70;;;;;;;;;;5113872;28;20519;-72
2023/04/25 09:39:55;;;;;;;2.50;1.80;;;;;;;;;;5113905;28;20486;-72
2023/04/25 09:42:26;;;;;;;2.60;1.70;;;;;;;;;;5113473;28;20473;-72
2023/04/25 09:44:54;;;;;;;4.10;2.40;;;;;;;;;;5113432;28;20935;-72
2023/04/25 09:47:23;;;;;;;3.00;1.90;;;;;;;;;;5113617;28;20450;-72
2023/04/25 09:49:50;;;;;;;3.20;2.53;;;;;;;;;;5113693;28;20511;-72
2023/04/25 09:52:18;;;;;;;3.10;2.40;;;;;;;;;;5113373;28;20485;-73
2023/04/25 09:54:45;;;;;;;3.20;1.90;;;;;;;;;;5113461;28;20456;-73
2023/04/25 09:57:14;;;;;;;2.33;1.70;;;;;;;;;;5113449;28;20479;-72
2023/04/25 09:59:44;;;;;;;2.50;1.63;;;;;;;;;;5113525;28;20481;-72
2023/04/25 10:02:12;;;;;;;1.70;1.33;;;;;;;;;;5113779;28;20481;-74
2023/04/25 10:04:40;;;;;;;2.70;1.90;;;;;;;;;;5113495;28;20506;-72
2023/04/25 10:07:08;;;;;;;7.27;5.00;;;;;;;;;;5116721;28;20938;-73
2023/04/25 10:09:39;;;;;;;5.37;2.90;;;;;;;;;;5117807;28;21041;-73
2023/04/25 10:12:07;;;;;;;2.47;1.90;;;;;;;;;;5117853;28;20560;-73
2023/04/25 10:14:34;;;;;;;5.77;3.97;;;;;;;;;;5117830;28;20442;-73
2023/04/25 10:17:03;;;;;;;9.00;2.23;;;;;;;;;;5117900;28;20949;-73
2023/04/25 10:19:30;;;;;;;3.60;2.20;;;;;;;;;;5117754;28;20489;-73
2023/04/25 10:22:04;;;;;;;3.47;1.57;;;;;;;;;;5116904;28;20465;-72
2023/04/25 10:24:31;;;;;;;4.93;2.97;;;;;;;;;;5117286;28;20450;-73
2023/04/25 10:26:58;;;;;;;2.67;1.80;;;;;;;;;;5117551;28;20457;-73
2023/04/25 10:29:26;;;;;;;2.30;2.10;;;;;;;;;;5117302;28;20993;-73
2023/04/25 10:31:53;;;;;;;2.13;1.70;;;;;;;;;;5117122;28;20469;-73
2023/04/25 10:34:25;;;;;;;2.27;1.77;;;;;;;;;;5117059;28;20454;-73
2023/04/25 10:36:53;;;;;;;2.40;1.90;;;;;;;;;;5117318;28;21003;-73
2023/04/25 10:39:24;;;;;;;2.63;2.20;;;;;;;;;;5116916;28;21032;-73
2023/04/25 10:41:55;;;;;;;3.20;2.13;;;;;;;;;;5116950;28;20470;-73
2023/04/25 10:44:22;;;;;;;4.17;1.90;;;;;;;;;;5116673;28;20434;-75
2023/04/25 10:46:50;;;;;;;3.40;2.70;;;;;;;;;;5117111;28;20930;-73
2023/04/25 10:49:31;;;;;;;2.93;2.30;;;;;;;;;;5117240;28;20445;-73
2023/04/25 10:52:18;;;;;;;4.63;3.00;;;;;;;;;;5116732;28;20522;-73
2023/04/25 10:54:49;;;;;;;2.77;2.27;;;;;;;;;;5116837;28;20449;-73
2023/04/25 10:57:29;;;;;;;4.77;2.50;;;;;;;;;;5116660;28;20492;-73
2023/04/25 10:59:59;;;;;;;4.57;2.23;;;;;;;;;;5117050;28;20481;-73
2023/04/25 11:02:28;;;;;;;2.93;1.80;;;;;;;;;;5116594;28;20468;-73
2023/04/25 11:04:57;;;;;;;2.10;1.50;;;;;;;;;;5116503;28;20450;-73
2023/04/25 11:07:27;;;;;;;3.23;2.03;;;;;;;;;;5116511;28;20811;-73
2023/04/25 11:09:54;;;;;;;2.00;1.70;;;;;;;;;;5116802;28;20437;-73
2023/04/25 11:12:22;;;;;;;1.57;1.30;;;;;;;;;;5116223;28;20474;-72
2023/04/25 11:14:49;;;;;;;1.70;1.57;;;;;;;;;;5116559;28;20957;-72
2023/04/25 11:17:16;;;;;;;2.50;1.20;;;;;;;;;;5115866;28;20454;-72
2023/04/25 11:19:43;;;;;;;1.90;1.50;;;;;;;;;;5115771;28;20481;-72
2023/04/25 11:22:12;;;;;;;2.53;1.53;;;;;;;;;;5115848;28;20477;-72
2023/04/25 11:24:39;;;;;;;1.80;1.40;;;;;;;;;;5115484;28;20453;-72
2023/04/25 11:27:06;;;;;;;1.60;1.30;;;;;;;;;;5116266;28;20931;-72
2023/04/25 11:29:34;;;;;;;1.90;1.60;;;;;;;;;;5116015;28;20446;-72
2023/04/25 11:32:02;;;;;;;2.27;1.60;;;;;;;;;;5116172;28;20970;-72
2023/04/25 11:34:30;;;;;;;2.20;1.70;;;;;;;;;;5115718;28;20449;-71
2023/04/25 11:36:57;;;;;;;1.67;1.40;;;;;;;;;;5115881;28;20462;-72
2023/04/25 11:39:26;;;;;;;1.60;1.27;;;;;;;;;;5115703;28;20481;-72
2023/04/25 11:41:53;;;;;;;1.70;1.23;;;;;;;;;;5115711;28;20484;-72
2023/04/25 11:44:21;;;;;;;1.60;1.20;;;;;;;;;;5115623;28;20453;-72
2023/04/25 11:46:48;;;;;;;1.60;1.33;;;;;;;;;;5115940;28;20445;-72
2023/04/25 11:49:17;;;;;;;1.87;1.50;;;;;;;;;;5115767;28;20923;-73
2023/04/25 11:51:46;;;;;;;3.10;1.00;;;;;;;;;;5115589;28;20465;-72
2023/04/25 11:54:13;;;;;;;1.50;1.10;;;;;;;;;;5115561;28;20567;-73
2023/04/25 11:56:43;;;;;;;1.40;1.10;;;;;;;;;;5115449;28;20502;-73
2023/04/25 11:59:10;;;;;;;2.37;1.30;;;;;;;;;;5115635;28;20485;-72
2023/04/25 12:01:38;;;;;;;2.00;1.70;;;;;;;;;;5115368;28;20457;-73
2023/04/25 12:04:13;;;;;;;1.80;1.60;;;;;;;;;;5115204;28;20473;-72
2023/04/25 12:06:40;;;;;;;2.83;1.50;;;;;;;;;;5115215;28;20449;-72
2023/04/25 12:09:10;;;;;;;3.30;1.67;;;;;;;;;;5115269;28;20502;-73
2023/04/25 12:11:43;;;;;;;6.03;1.70;;;;;;;;;;5115111;28;20488;-72
2023/04/25 12:14:11;;;;;;;4.20;1.77;;;;;;;;;;5115036;28;20938;-72
2023/04/25 12:16:42;;;;;;;4.43;2.27;;;;;;;;;;5115159;28;20450;-73
2023/04/25 12:19:09;;;;;;;2.67;1.67;;;;;;;;;;5115113;28;20543;-72
2023/04/25 12:21:36;;;;;;;2.50;2.20;;;;;;;;;;5114502;28;20453;-72
2023/04/25 12:24:11;;;;;;;4.10;1.73;;;;;;;;;;5114539;28;20953;-73
2023/04/25 12:26:52;;;;;;;4.10;3.00;;;;;;;;;;5114952;28;20445;-73
2023/04/25 12:29:20;;;;;;;3.33;2.03;;;;;;;;;;5114678;28;20495;-72
2023/04/25 12:31:47;;;;;;;2.47;1.90;;;;;;;;;;5114693;28;20473;-72
2023/04/25 12:34:14;;;;;;;2.23;1.70;;;;;;;;;;5114615;28;20453;-72
2023/04/25 12:36:41;;;;;;;2.30;1.90;;;;;;;;;;5114714;28;20456;-72
2023/04/25 12:39:08;;;;;;;3.47;2.20;;;;;;;;;;5114523;28;20814;-72
2023/04/25 12:41:35;;;;;;;6.13;3.67;;;;;;;;;;5114343;28;20870;-71
2023/04/25 12:44:04;;;;;;;5.50;3.10;;;;;;;;;;5114398;28;20450;-72
2023/04/25 12:46:31;;;;;;;3.87;2.20;;;;;;;;;;5114380;28;20449;-71
2023/04/25 12:48:58;;;;;;;4.77;2.60;;;;;;;;;;5114566;28;20520;-71
2023/04/25 12:51:27;;;;;;;3.13;2.17;;;;;;;;;;5114201;28;20461;-72
2023/04/25 12:53:55;;;;;;;4.60;2.13;;;;;;;;;;5114318;28;20461;-72
2023/04/25 12:56:22;;;;;;;8.27;3.63;;;;;;;;;;5114334;28;20441;-72
2023/04/25 12:58:49;;;;;;;3.63;2.37;;;;;;;;;;5114127;28;20457;-71
2023/04/25 13:01:18;;;;;;;3.50;2.60;;;;;;;;;;5114171;28;20866;-71
2023/04/25 13:03:45;;;;;;;3.80;2.60;;;;;;;;;;5113935;28;20481;-71
2023/04/25 13:06:12;;;;;;;3.13;2.80;;;;;;;;;;5114082;28;20457;-71
2023/04/25 13:08:41;;;;;;;3.90;2.90;;;;;;;;;;5114174;28;20450;-71
2023/04/25 13:11:08;;;;;;;4.43;2.97;;;;;;;;;;5114016;28;20957;-71
2023/04/25 13:13:35;;;;;;;4.30;3.70;;;;;;;;;;5113701;28;20470;-71
2023/04/25 13:16:02;;;;;;;5.57;3.00;;;;;;;;;;5113836;28;20457;-71
2023/04/25 13:18:31;;;;;;;12.13;9.83;;;;;;;;;;5113880;28;20446;-70
2023/04/25 13:21:01;;;;;;;6.60;3.90;;;;;;;;;;5113767;28;20489;-71
2023/04/25 13:23:29;;;;;;;3.10;2.40;;;;;;;;;;5113000;28;20484;-71
2023/04/25 13:25:57;;;;;;;3.53;3.20;;;;;;;;;;5113832;28;20456;-70
2023/04/25 13:28:25;;;;;;;5.13;2.80;;;;;;;;;;5113835;28;21008;-71
2023/04/25 13:30:52;;;;;;;4.30;2.80;;;;;;;;;;5113688;28;20449;-70
2023/04/25 13:33:20;;;;;;;5.07;3.87;;;;;;;;;;5113736;28;20500;-70
2023/04/25 13:35:53;;;;;;;3.30;2.33;;;;;;;;;;5113487;28;20446;-70
2023/04/25 13:38:20;;;;;;;4.13;2.53;;;;;;;;;;5113575;28;20454;-70
2023/04/25 13:40:47;;;;;;;2.13;1.73;;;;;;;;;;5113131;28;20819;-70
2023/04/25 13:43:15;;;;;;;3.00;2.20;;;;;;;;;;5113352;28;20470;-70
2023/04/25 13:45:42;;;;;;;2.60;1.97;;;;;;;;;;5113282;28;20461;-70
2023/04/25 13:48:09;;;;;;;3.07;2.20;;;;;;;;;;5113529;28;20809;-70
2023/04/25 13:50:36;;;;;;;2.17;1.97;;;;;;;;;;5113591;28;20446;-70
2023/04/25 13:53:05;;;;;;;2.43;1.97;;;;;;;;;;5113336;28;20461;-71
2023/04/25 13:55:32;;;;;;;2.80;1.90;;;;;;;;;;5113217;28;20485;-71
2023/04/25 13:57:59;;;;;;;3.50;2.27;;;;;;;;;;5113306;28;20464;-70
2023/04/25 14:00:26;;;;;;;2.67;2.07;;;;;;;;;;5113255;28;21027;-70
2023/04/25 14:02:54;;;;;;;3.00;2.13;;;;;;;;;;5113171;28;20466;-71
2023/04/25 14:05:21;;;;;;;3.87;1.93;;;;;;;;;;5113023;28;20922;-71
2023/04/25 14:07:48;;;;;;;5.30;2.73;;;;;;;;;;5113501;28;20445;-71
2023/04/25 14:10:16;;;;;;;2.20;1.97;;;;;;;;;;5113236;28;20891;-70
2023/04/25 14:12:43;;;;;;;3.10;2.20;;;;;;;;;;5113144;28;20473;-70
2023/04/25 14:15:11;;;;;;;2.70;2.23;;;;;;;;;;5113014;28;20450;-70
2023/04/25 14:17:38;;;;;;;2.57;1.83;;;;;;;;;;5113145;28;20454;-71
2023/04/25 14:20:07;;;;;;;2.73;2.40;;;;;;;;;;5113254;28;20485;-70
2023/04/25 14:22:34;;;;;;;2.40;1.80;;;;;;;;;;5112480;28;20477;-70
2023/04/25 14:25:02;;;;;;;2.90;2.70;;;;;;;;;;5112842;28;20454;-70
2023/04/25 14:27:30;;;;;;;3.33;2.40;;;;;;;;;;5113131;28;20934;-71
2023/04/25 14:29:57;;;;;;;3.50;3.20;;;;;;;;;;5113133;28;20441;-70
2023/04/25 14:32:24;;;;;;;3.40;2.20;;;;;;;;;;5113227;28;20477;-70
2023/04/25 14:34:51;;;;;;;3.30;3.00;;;;;;;;;;5112945;28;20452;-71
2023/04/25 14:37:18;;;;;;;2.33;2.10;;;;;;;;;;5113075;28;20449;-71
2023/04/25 14:39:45;;;;;;;2.83;2.30;;;;;;;;;;5113111;28;20449;-71
2023/04/25 14:42:12;;;;;;;3.40;1.77;;;;;;;;;;5112933;28;20473;-71
2023/04/25 14:44:41;;;;;;;2.30;2.00;;;;;;;;;;5112624;28;20989;-71
2023/04/25 14:47:08;;;;;;;1.80;1.57;;;;;;;;;;5112916;28;20454;-71